Main page
METAR-TAF:

METAR-TAF

Airports :

Zahedan Airport

Zahedan, Iran

latitude: 29-28N, longitude: 060-53E, elevation: 1370 m

Current weather observation

The report was made 1 hour and 7 minutes ago, at 13:00 UTC
Wind 10 kt from the Northeast
Temperature 29°C
Humidity 7%
Pressure 1015 hPa
Visibility 10 km or more
no clouds below 1500 m and no cumulonimbus

METAR: OIZH 211300Z 04010KT CAVOK 29/M10 Q1014 A2996 NOSIG

Time: 17:37 (14:07 UTC)

Forecast

The report was made 3 hours and 7 minutes ago, at 11:00 UTC
Forecast valid from 21 at 12 UTC to 22 at 18 UTC
Wind 10 kt from the North/Northeast
Visibility 10 km or more
no clouds below 1500 m and no cumulonimbus
Temporary
from 22 at 09 UTC to 22 at 15 UTC
Wind 10 kt from the North/Northeast with gusts up to 20 kt
Becoming
from 22 at 16 UTC to 22 at 18 UTC
Visibility: 3000 m
widespread dust

TAF: OIZH 211100Z 2112/2218 02010KT CAVOK TEMPO 2209/2215 03010G20KT BECMG 2216/2218 3000 DU

Weather observations and forecasts of more than 4000 airports (METAR and TAF reports).

The available stations are represented by yellow and red dots on the map.

Hover mouse over dot to see the name of the station.

Then click to see weather observations and forecasts.

To change the map : click on the green buttons with a black cross to zoom in, on the green button with a dash to zoom out, or on the green arrows for adjacent maps.


METAR-TAF: